sensor_id;sensor_type;location;lat;lon;timestamp;temperature;humidity
2729;DHT22;1372;47.956;7.830;2022-10-17T00:01:24;14.20;99.90
2729;DHT22;1372;47.956;7.830;2022-10-17T00:03:53;14.20;99.90
2729;DHT22;1372;47.956;7.830;2022-10-17T00:06:21;14.10;99.90
2729;DHT22;1372;47.956;7.830;2022-10-17T00:08:50;14.10;99.90
2729;DHT22;1372;47.956;7.830;2022-10-17T00:11:22;14.10;99.90
2729;DHT22;1372;47.956;7.830;2022-10-17T00:13:54;14.20;99.90
2729;DHT22;1372;47.956;7.830;2022-10-17T00:16:24;14.20;99.90
2729;DHT22;1372;47.956;7.830;2022-10-17T00:18:55;14.20;99.90
2729;DHT22;1372;47.956;7.830;2022-10-17T00:21:24;14.10;99.90
2729;DHT22;1372;47.956;7.830;2022-10-17T00:23:56;14.10;99.90
2729;DHT22;1372;47.956;7.830;2022-10-17T00:26:26;14.10;99.90
2729;DHT22;1372;47.956;7.830;2022-10-17T00:28:55;14.00;99.90
2729;DHT22;1372;47.956;7.830;2022-10-17T00:31:24;14.00;99.90
2729;DHT22;1372;47.956;7.830;2022-10-17T00:33:53;14.00;99.90
2729;DHT22;1372;47.956;7.830;2022-10-17T00:36:23;14.20;99.90
2729;DHT22;1372;47.956;7.830;2022-10-17T00:38:56;14.20;99.90
2729;DHT22;1372;47.956;7.830;2022-10-17T00:41:29;14.20;99.90
2729;DHT22;1372;47.956;7.830;2022-10-17T00:44:00;14.20;99.90
2729;DHT22;1372;47.956;7.830;2022-10-17T00:46:32;14.20;99.90
2729;DHT22;1372;47.956;7.830;2022-10-17T00:49:04;14.30;99.90
2729;DHT22;1372;47.956;7.830;2022-10-17T00:51:39;14.30;99.90
2729;DHT22;1372;47.956;7.830;2022-10-17T00:54:08;14.30;99.90
2729;DHT22;1372;47.956;7.830;2022-10-17T00:56:42;14.30;99.90
2729;DHT22;1372;47.956;7.830;2022-10-17T00:59:13;14.20;99.90
2729;DHT22;1372;47.956;7.830;2022-10-17T01:01:47;14.30;99.90
2729;DHT22;1372;47.956;7.830;2022-10-17T01:04:19;14.30;99.90
2729;DHT22;1372;47.956;7.830;2022-10-17T01:06:48;14.20;99.90
2729;DHT22;1372;47.956;7.830;2022-10-17T01:09:17;14.20;99.90
2729;DHT22;1372;47.956;7.830;2022-10-17T01:11:52;14.20;99.90
2729;DHT22;1372;47.956;7.830;2022-10-17T01:14:30;14.10;99.90
2729;DHT22;1372;47.956;7.830;2022-10-17T01:17:08;14.00;99.90
2729;DHT22;1372;47.956;7.830;2022-10-17T01:19:59;14.10;99.90
2729;DHT22;1372;47.956;7.830;2022-10-17T01:23:01;14.10;99.90
2729;DHT22;1372;47.956;7.830;2022-10-17T01:25:51;14.10;99.90
2729;DHT22;1372;47.956;7.830;2022-10-17T01:28:45;13.90;99.90
2729;DHT22;1372;47.956;7.830;2022-10-17T01:31:28;13.90;99.90
2729;DHT22;1372;47.956;7.830;2022-10-17T01:34:02;13.90;99.90
2729;DHT22;1372;47.956;7.830;2022-10-17T01:36:38;13.80;99.90
2729;DHT22;1372;47.956;7.830;2022-10-17T01:39:14;13.80;99.90
2729;DHT22;1372;47.956;7.830;2022-10-17T01:41:51;13.80;99.90
2729;DHT22;1372;47.956;7.830;2022-10-17T01:44:31;13.70;99.90
2729;DHT22;1372;47.956;7.830;2022-10-17T01:47:08;13.60;99.90
2729;DHT22;1372;47.956;7.830;2022-10-17T01:49:40;13.70;99.90
2729;DHT22;1372;47.956;7.830;2022-10-17T01:52:16;13.60;99.90
2729;DHT22;1372;47.956;7.830;2022-10-17T01:54:50;13.60;99.90
2729;DHT22;1372;47.956;7.830;2022-10-17T01:57:27;13.50;99.90
2729;DHT22;1372;47.956;7.830;2022-10-17T01:59:57;13.50;99.90
2729;DHT22;1372;47.956;7.830;2022-10-17T02:02:30;13.60;99.90
2729;DHT22;1372;47.956;7.830;2022-10-17T02:05:02;13.50;99.90
2729;DHT22;1372;47.956;7.830;2022-10-17T02:07:31;13.50;99.90
2729;DHT22;1372;47.956;7.830;2022-10-17T02:10:00;13.50;99.90
2729;DHT22;1372;47.956;7.830;2022-10-17T02:15:18;13.50;99.90
2729;DHT22;1372;47.956;7.830;2022-10-17T02:18:05;13.50;99.90
2729;DHT22;1372;47.956;7.830;2022-10-17T02:20:47;13.50;99.90
2729;DHT22;1372;47.956;7.830;2022-10-17T02:23:23;13.50;99.90
2729;DHT22;1372;47.956;7.830;2022-10-17T02:26:03;13.50;99.90
2729;DHT22;1372;47.956;7.830;2022-10-17T02:28:40;13.50;99.90
2729;DHT22;1372;47.956;7.830;2022-10-17T02:31:15;13.50;99.90
2729;DHT22;1372;47.956;7.830;2022-10-17T02:33:48;13.50;99.90
2729;DHT22;1372;47.956;7.830;2022-10-17T02:36:23;13.50;99.90
2729;DHT22;1372;47.956;7.830;2022-10-17T02:38:54;13.50;99.90
2729;DHT22;1372;47.956;7.830;2022-10-17T02:41:23;13.50;99.90
2729;DHT22;1372;47.956;7.830;2022-10-17T02:43:53;13.50;99.90
2729;DHT22;1372;47.956;7.830;2022-10-17T02:46:23;13.40;99.90
2729;DHT22;1372;47.956;7.830;2022-10-17T02:48:58;13.50;99.90
2729;DHT22;1372;47.956;7.830;2022-10-17T02:51:34;13.50;99.90
2729;DHT22;1372;47.956;7.830;2022-10-17T02:54:12;13.50;99.90
2729;DHT22;1372;47.956;7.830;2022-10-17T02:56:49;13.50;99.90
2729;DHT22;1372;47.956;7.830;2022-10-17T02:59:22;13.50;99.90
2729;DHT22;1372;47.956;7.830;2022-10-17T03:01:52;13.50;99.90
2729;DHT22;1372;47.956;7.830;2022-10-17T03:04:23;13.40;99.90
2729;DHT22;1372;47.956;7.830;2022-10-17T03:06:54;13.50;99.90
2729;DHT22;1372;47.956;7.830;2022-10-17T03:09:23;13.50;99.90
2729;DHT22;1372;47.956;7.830;2022-10-17T03:11:51;13.40;99.90
2729;DHT22;1372;47.956;7.830;2022-10-17T03:14:20;13.30;99.90
2729;DHT22;1372;47.956;7.830;2022-10-17T03:16:48;13.20;99.90
2729;DHT22;1372;47.956;7.830;2022-10-17T03:19:19;13.30;99.90
2729;DHT22;1372;47.956;7.830;2022-10-17T03:21:49;13.30;99.90
2729;DHT22;1372;47.956;7.830;2022-10-17T03:24:18;13.20;99.90
2729;DHT22;1372;47.956;7.830;2022-10-17T03:26:46;13.20;99.90
2729;DHT22;1372;47.956;7.830;2022-10-17T03:29:15;13.10;99.90
2729;DHT22;1372;47.956;7.830;2022-10-17T03:31:43;13.20;99.90
2729;DHT22;1372;47.956;7.830;2022-10-17T03:34:12;13.20;99.90
2729;DHT22;1372;47.956;7.830;2022-10-17T03:36:45;13.10;99.90
2729;DHT22;1372;47.956;7.830;2022-10-17T03:39:15;13.10;99.90
2729;DHT22;1372;47.956;7.830;2022-10-17T03:41:43;13.00;99.90
2729;DHT22;1372;47.956;7.830;2022-10-17T03:44:12;13.00;99.90
2729;DHT22;1372;47.956;7.830;2022-10-17T03:46:41;13.00;99.90
2729;DHT22;1372;47.956;7.830;2022-10-17T03:49:09;13.00;99.90
2729;DHT22;1372;47.956;7.830;2022-10-17T03:51:41;12.90;99.90
2729;DHT22;1372;47.956;7.830;2022-10-17T03:54:09;12.90;99.90
2729;DHT22;1372;47.956;7.830;2022-10-17T03:56:42;13.00;99.90
2729;DHT22;1372;47.956;7.830;2022-10-17T03:59:12;12.90;99.90
2729;DHT22;1372;47.956;7.830;2022-10-17T04:01:44;13.00;99.90
2729;DHT22;1372;47.956;7.830;2022-10-17T04:04:13;13.00;99.90
2729;DHT22;1372;47.956;7.830;2022-10-17T04:06:41;13.00;99.90
2729;DHT22;1372;47.956;7.830;2022-10-17T04:09:13;13.00;99.90
2729;DHT22;1372;47.956;7.830;2022-10-17T04:11:43;13.00;99.90
2729;DHT22;1372;47.956;7.830;2022-10-17T04:14:11;12.90;99.90
2729;DHT22;1372;47.956;7.830;2022-10-17T04:16:40;12.90;99.90
2729;DHT22;1372;47.956;7.830;2022-10-17T04:19:11;12.90;99.90
2729;DHT22;1372;47.956;7.830;2022-10-17T04:21:40;12.80;99.90
2729;DHT22;1372;47.956;7.830;2022-10-17T04:24:10;12.80;99.90
2729;DHT22;1372;47.956;7.830;2022-10-17T04:26:39;12.70;99.90
2729;DHT22;1372;47.956;7.830;2022-10-17T04:29:11;12.80;99.90
2729;DHT22;1372;47.956;7.830;2022-10-17T04:31:39;12.80;99.90
2729;DHT22;1372;47.956;7.830;2022-10-17T04:34:08;12.70;99.90
2729;DHT22;1372;47.956;7.830;2022-10-17T04:36:37;12.80;99.90
2729;DHT22;1372;47.956;7.830;2022-10-17T04:39:05;12.80;99.90
2729;DHT22;1372;47.956;7.830;2022-10-17T04:41:34;12.80;99.90
2729;DHT22;1372;47.956;7.830;2022-10-17T04:44:02;12.70;99.90
2729;DHT22;1372;47.956;7.830;2022-10-17T04:46:34;12.70;99.90
2729;DHT22;1372;47.956;7.830;2022-10-17T04:49:09;12.70;99.90
2729;DHT22;1372;47.956;7.830;2022-10-17T04:51:38;12.70;99.90
2729;DHT22;1372;47.956;7.830;2022-10-17T04:54:06;12.70;99.90
2729;DHT22;1372;47.956;7.830;2022-10-17T04:56:35;12.60;99.90
2729;DHT22;1372;47.956;7.830;2022-10-17T04:59:04;12.60;99.90
2729;DHT22;1372;47.956;7.830;2022-10-17T05:01:34;12.70;99.90
2729;DHT22;1372;47.956;7.830;2022-10-17T05:04:02;12.60;99.90
2729;DHT22;1372;47.956;7.830;2022-10-17T05:06:31;12.70;99.90
2729;DHT22;1372;47.956;7.830;2022-10-17T05:09:00;12.70;99.90
2729;DHT22;1372;47.956;7.830;2022-10-17T05:11:29;12.60;99.90
2729;DHT22;1372;47.956;7.830;2022-10-17T05:13:59;12.70;99.90
2729;DHT22;1372;47.956;7.830;2022-10-17T05:16:29;12.70;99.90
2729;DHT22;1372;47.956;7.830;2022-10-17T05:19:02;12.70;99.90
2729;DHT22;1372;47.956;7.830;2022-10-17T05:21:30;12.70;99.90
2729;DHT22;1372;47.956;7.830;2022-10-17T05:24:05;12.60;99.90
2729;DHT22;1372;47.956;7.830;2022-10-17T05:26:34;12.60;99.90
2729;DHT22;1372;47.956;7.830;2022-10-17T05:29:05;12.60;99.90
2729;DHT22;1372;47.956;7.830;2022-10-17T05:31:34;12.50;99.90
2729;DHT22;1372;47.956;7.830;2022-10-17T05:34:04;12.50;99.90
2729;DHT22;1372;47.956;7.830;2022-10-17T05:36:34;12.60;99.90
2729;DHT22;1372;47.956;7.830;2022-10-17T05:39:03;12.50;99.90
2729;DHT22;1372;47.956;7.830;2022-10-17T05:41:31;12.50;99.90
2729;DHT22;1372;47.956;7.830;2022-10-17T05:44:00;12.50;99.90
2729;DHT22;1372;47.956;7.830;2022-10-17T05:46:30;12.50;99.90
2729;DHT22;1372;47.956;7.830;2022-10-17T05:48:59;12.50;99.90
2729;DHT22;1372;47.956;7.830;2022-10-17T05:51:29;12.50;99.90
2729;DHT22;1372;47.956;7.830;2022-10-17T05:54:00;12.60;99.90
2729;DHT22;1372;47.956;7.830;2022-10-17T05:56:28;12.50;99.90
2729;DHT22;1372;47.956;7.830;2022-10-17T05:58:58;12.50;99.90
2729;DHT22;1372;47.956;7.830;2022-10-17T06:01:27;12.50;99.90
2729;DHT22;1372;47.956;7.830;2022-10-17T06:03:56;12.50;99.90
2729;DHT22;1372;47.956;7.830;2022-10-17T06:06:24;12.60;99.90
2729;DHT22;1372;47.956;7.830;2022-10-17T06:08:54;12.70;99.90
2729;DHT22;1372;47.956;7.830;2022-10-17T06:11:23;12.70;99.90
2729;DHT22;1372;47.956;7.830;2022-10-17T06:13:51;12.70;99.90
2729;DHT22;1372;47.956;7.830;2022-10-17T06:16:20;12.70;99.90
2729;DHT22;1372;47.956;7.830;2022-10-17T06:18:48;12.70;99.90
2729;DHT22;1372;47.956;7.830;2022-10-17T06:21:21;12.60;99.90
2729;DHT22;1372;47.956;7.830;2022-10-17T06:23:51;12.60;99.90
2729;DHT22;1372;47.956;7.830;2022-10-17T06:26:21;12.60;99.90
2729;DHT22;1372;47.956;7.830;2022-10-17T06:28:50;12.50;99.90
2729;DHT22;1372;47.956;7.830;2022-10-17T06:31:21;12.60;99.90
2729;DHT22;1372;47.956;7.830;2022-10-17T06:33:50;12.60;99.90
2729;DHT22;1372;47.956;7.830;2022-10-17T06:36:20;12.60;99.90
2729;DHT22;1372;47.956;7.830;2022-10-17T06:38:49;12.60;99.90
2729;DHT22;1372;47.956;7.830;2022-10-17T06:41:18;12.60;99.90
2729;DHT22;1372;47.956;7.830;2022-10-17T06:43:47;12.70;99.90
2729;DHT22;1372;47.956;7.830;2022-10-17T06:46:18;12.70;99.90
2729;DHT22;1372;47.956;7.830;2022-10-17T06:48:47;12.80;99.90
2729;DHT22;1372;47.956;7.830;2022-10-17T06:51:15;12.80;99.90
2729;DHT22;1372;47.956;7.830;2022-10-17T06:53:44;12.90;99.90
2729;DHT22;1372;47.956;7.830;2022-10-17T06:56:13;12.90;99.90
2729;DHT22;1372;47.956;7.830;2022-10-17T06:58:41;12.90;99.90
2729;DHT22;1372;47.956;7.830;2022-10-17T07:01:12;12.90;99.90
2729;DHT22;1372;47.956;7.830;2022-10-17T07:03:46;13.00;99.90
2729;DHT22;1372;47.956;7.830;2022-10-17T07:06:15;13.00;99.90
2729;DHT22;1372;47.956;7.830;2022-10-17T07:08:44;13.00;99.90
2729;DHT22;1372;47.956;7.830;2022-10-17T07:11:18;13.00;99.90
2729;DHT22;1372;47.956;7.830;2022-10-17T07:13:48;13.10;99.90
2729;DHT22;1372;47.956;7.830;2022-10-17T07:16:18;13.20;99.90
2729;DHT22;1372;47.956;7.830;2022-10-17T07:18:48;13.20;99.90
2729;DHT22;1372;47.956;7.830;2022-10-17T07:21:17;13.20;99.90
2729;DHT22;1372;47.956;7.830;2022-10-17T07:23:46;13.30;99.90
2729;DHT22;1372;47.956;7.830;2022-10-17T07:26:15;13.40;99.90
2729;DHT22;1372;47.956;7.830;2022-10-17T07:28:50;13.50;99.90
2729;DHT22;1372;47.956;7.830;2022-10-17T07:31:21;13.60;99.90
2729;DHT22;1372;47.956;7.830;2022-10-17T07:33:50;13.60;99.90
2729;DHT22;1372;47.956;7.830;2022-10-17T07:36:22;13.70;99.90
2729;DHT22;1372;47.956;7.830;2022-10-17T07:38:51;13.70;99.90
2729;DHT22;1372;47.956;7.830;2022-10-17T07:41:19;14.00;99.90
2729;DHT22;1372;47.956;7.830;2022-10-17T07:43:48;14.20;99.90
2729;DHT22;1372;47.956;7.830;2022-10-17T07:46:21;14.30;99.90
2729;DHT22;1372;47.956;7.830;2022-10-17T07:48:50;14.50;99.90
2729;DHT22;1372;47.956;7.830;2022-10-17T07:51:18;14.60;99.90
2729;DHT22;1372;47.956;7.830;2022-10-17T07:53:48;14.70;99.90
2729;DHT22;1372;47.956;7.830;2022-10-17T07:56:19;14.80;99.90
2729;DHT22;1372;47.956;7.830;2022-10-17T07:58:52;14.90;99.90
2729;DHT22;1372;47.956;7.830;2022-10-17T08:01:22;15.00;99.90
2729;DHT22;1372;47.956;7.830;2022-10-17T08:03:54;15.20;99.90
2729;DHT22;1372;47.956;7.830;2022-10-17T08:06:22;15.30;99.90
2729;DHT22;1372;47.956;7.830;2022-10-17T08:08:51;15.40;99.90
2729;DHT22;1372;47.956;7.830;2022-10-17T08:11:22;15.50;99.90
2729;DHT22;1372;47.956;7.830;2022-10-17T08:13:51;15.70;99.90
2729;DHT22;1372;47.956;7.830;2022-10-17T08:16:20;15.70;99.90
2729;DHT22;1372;47.956;7.830;2022-10-17T08:18:50;15.80;99.90
2729;DHT22;1372;47.956;7.830;2022-10-17T08:21:18;15.80;99.90
2729;DHT22;1372;47.956;7.830;2022-10-17T08:23:49;15.90;99.90
2729;DHT22;1372;47.956;7.830;2022-10-17T08:26:18;16.00;99.90
2729;DHT22;1372;47.956;7.830;2022-10-17T08:28:47;16.10;99.90
2729;DHT22;1372;47.956;7.830;2022-10-17T08:31:18;16.10;99.90
2729;DHT22;1372;47.956;7.830;2022-10-17T08:33:48;16.20;99.90
2729;DHT22;1372;47.956;7.830;2022-10-17T08:36:19;16.30;99.90
2729;DHT22;1372;47.956;7.830;2022-10-17T08:38:48;16.40;99.90
2729;DHT22;1372;47.956;7.830;2022-10-17T08:41:35;16.40;99.90
2729;DHT22;1372;47.956;7.830;2022-10-17T08:44:17;16.50;99.90
2729;DHT22;1372;47.956;7.830;2022-10-17T08:46:55;16.60;99.90
2729;DHT22;1372;47.956;7.830;2022-10-17T08:49:36;16.70;99.90
2729;DHT22;1372;47.956;7.830;2022-10-17T08:52:15;16.70;99.90
2729;DHT22;1372;47.956;7.830;2022-10-17T08:54:48;16.80;99.90
2729;DHT22;1372;47.956;7.830;2022-10-17T08:57:20;16.90;99.90
2729;DHT22;1372;47.956;7.830;2022-10-17T08:59:50;16.90;99.90
2729;DHT22;1372;47.956;7.830;2022-10-17T09:02:33;16.90;99.90
2729;DHT22;1372;47.956;7.830;2022-10-17T09:08:18;17.00;99.90
2729;DHT22;1372;47.956;7.830;2022-10-17T09:10:56;17.10;99.90
2729;DHT22;1372;47.956;7.830;2022-10-17T09:13:37;17.10;99.90
2729;DHT22;1372;47.956;7.830;2022-10-17T09:16:41;17.10;99.90
2729;DHT22;1372;47.956;7.830;2022-10-17T09:19:27;17.30;99.90
2729;DHT22;1372;47.956;7.830;2022-10-17T09:22:03;17.30;99.90
2729;DHT22;1372;47.956;7.830;2022-10-17T09:24:39;17.40;99.90
2729;DHT22;1372;47.956;7.830;2022-10-17T09:27:19;17.50;99.90
2729;DHT22;1372;47.956;7.830;2022-10-17T09:29:54;17.60;99.90
2729;DHT22;1372;47.956;7.830;2022-10-17T09:32:43;17.70;99.90
2729;DHT22;1372;47.956;7.830;2022-10-17T09:35:14;17.80;99.90
2729;DHT22;1372;47.956;7.830;2022-10-17T09:37:44;18.00;99.90
2729;DHT22;1372;47.956;7.830;2022-10-17T09:40:17;18.20;99.90
2729;DHT22;1372;47.956;7.830;2022-10-17T09:42:48;18.20;99.90
2729;DHT22;1372;47.956;7.830;2022-10-17T09:45:20;18.30;99.90
2729;DHT22;1372;47.956;7.830;2022-10-17T09:47:59;18.30;99.90
2729;DHT22;1372;47.956;7.830;2022-10-17T09:50:32;18.30;99.90
2729;DHT22;1372;47.956;7.830;2022-10-17T09:53:09;18.30;99.90
2729;DHT22;1372;47.956;7.830;2022-10-17T09:55:45;18.30;99.90
2729;DHT22;1372;47.956;7.830;2022-10-17T09:58:15;18.40;99.90
2729;DHT22;1372;47.956;7.830;2022-10-17T10:00:45;18.40;99.90
2729;DHT22;1372;47.956;7.830;2022-10-17T10:03:16;18.40;99.90
2729;DHT22;1372;47.956;7.830;2022-10-17T10:06:01;18.50;99.90
2729;DHT22;1372;47.956;7.830;2022-10-17T10:08:34;18.50;99.90
2729;DHT22;1372;47.956;7.830;2022-10-17T10:11:07;18.50;99.90
2729;DHT22;1372;47.956;7.830;2022-10-17T10:13:42;18.50;99.90
2729;DHT22;1372;47.956;7.830;2022-10-17T10:16:17;18.50;99.90
2729;DHT22;1372;47.956;7.830;2022-10-17T10:18:48;18.50;99.90
2729;DHT22;1372;47.956;7.830;2022-10-17T10:21:20;18.70;99.90
2729;DHT22;1372;47.956;7.830;2022-10-17T10:24:10;18.70;99.90
2729;DHT22;1372;47.956;7.830;2022-10-17T10:26:42;18.80;99.90
2729;DHT22;1372;47.956;7.830;2022-10-17T10:29:22;18.90;99.90
2729;DHT22;1372;47.956;7.830;2022-10-17T10:32:06;18.90;99.90
2729;DHT22;1372;47.956;7.830;2022-10-17T10:34:40;19.00;99.90
2729;DHT22;1372;47.956;7.830;2022-10-17T10:37:18;19.10;99.90
2729;DHT22;1372;47.956;7.830;2022-10-17T10:39:51;19.20;99.90
2729;DHT22;1372;47.956;7.830;2022-10-17T10:42:26;19.20;99.90
2729;DHT22;1372;47.956;7.830;2022-10-17T10:45:00;19.30;99.90
2729;DHT22;1372;47.956;7.830;2022-10-17T10:47:35;19.40;99.90
2729;DHT22;1372;47.956;7.830;2022-10-17T10:50:22;19.50;99.90
2729;DHT22;1372;47.956;7.830;2022-10-17T10:53:08;19.50;99.90
2729;DHT22;1372;47.956;7.830;2022-10-17T10:55:45;19.40;99.90
2729;DHT22;1372;47.956;7.830;2022-10-17T10:58:25;19.60;99.90
2729;DHT22;1372;47.956;7.830;2022-10-17T11:01:03;19.60;99.90
2729;DHT22;1372;47.956;7.830;2022-10-17T11:03:36;19.60;99.90
2729;DHT22;1372;47.956;7.830;2022-10-17T11:06:13;19.70;99.90
2729;DHT22;1372;47.956;7.830;2022-10-17T11:08:48;19.80;99.90
2729;DHT22;1372;47.956;7.830;2022-10-17T11:11:27;19.90;99.90
2729;DHT22;1372;47.956;7.830;2022-10-17T11:14:00;19.90;99.90
2729;DHT22;1372;47.956;7.830;2022-10-17T11:16:36;20.20;99.90
2729;DHT22;1372;47.956;7.830;2022-10-17T11:19:12;20.30;99.90
2729;DHT22;1372;47.956;7.830;2022-10-17T11:21:53;20.30;99.90
2729;DHT22;1372;47.956;7.830;2022-10-17T11:24:32;20.30;99.90
2729;DHT22;1372;47.956;7.830;2022-10-17T11:27:06;20.50;99.90
2729;DHT22;1372;47.956;7.830;2022-10-17T11:29:38;20.50;99.90
2729;DHT22;1372;47.956;7.830;2022-10-17T11:32:12;20.70;99.90
2729;DHT22;1372;47.956;7.830;2022-10-17T11:34:46;20.80;99.90
2729;DHT22;1372;47.956;7.830;2022-10-17T11:37:18;20.90;99.90
2729;DHT22;1372;47.956;7.830;2022-10-17T11:39:58;21.20;99.90
2729;DHT22;1372;47.956;7.830;2022-10-17T11:42:38;21.40;99.90
2729;DHT22;1372;47.956;7.830;2022-10-17T11:45:21;21.30;99.90
2729;DHT22;1372;47.956;7.830;2022-10-17T11:48:11;21.30;99.90
2729;DHT22;1372;47.956;7.830;2022-10-17T11:50:44;21.30;99.90
2729;DHT22;1372;47.956;7.830;2022-10-17T11:54:05;21.20;99.90
2729;DHT22;1372;47.956;7.830;2022-10-17T11:56:45;21.10;99.90
2729;DHT22;1372;47.956;7.830;2022-10-17T11:59:55;21.10;99.90
2729;DHT22;1372;47.956;7.830;2022-10-17T12:02:46;21.00;99.90
2729;DHT22;1372;47.956;7.830;2022-10-17T12:05:30;21.00;99.90
2729;DHT22;1372;47.956;7.830;2022-10-17T12:08:07;21.10;99.90
2729;DHT22;1372;47.956;7.830;2022-10-17T12:10:44;21.10;99.90
2729;DHT22;1372;47.956;7.830;2022-10-17T12:13:46;21.20;99.90
2729;DHT22;1372;47.956;7.830;2022-10-17T12:16:41;21.20;99.90
2729;DHT22;1372;47.956;7.830;2022-10-17T12:19:31;21.20;99.90
2729;DHT22;1372;47.956;7.830;2022-10-17T12:22:28;21.20;99.90
2729;DHT22;1372;47.956;7.830;2022-10-17T12:25:00;21.30;99.90
2729;DHT22;1372;47.956;7.830;2022-10-17T12:27:39;21.30;99.90
2729;DHT22;1372;47.956;7.830;2022-10-17T12:30:22;21.40;99.90
2729;DHT22;1372;47.956;7.830;2022-10-17T12:33:15;21.40;99.90
2729;DHT22;1372;47.956;7.830;2022-10-17T12:36:35;21.50;99.90
2729;DHT22;1372;47.956;7.830;2022-10-17T12:39:40;21.40;99.90
2729;DHT22;1372;47.956;7.830;2022-10-17T12:42:47;21.50;99.90
2729;DHT22;1372;47.956;7.830;2022-10-17T12:45:43;21.50;99.90
2729;DHT22;1372;47.956;7.830;2022-10-17T12:52:15;21.60;99.90
2729;DHT22;1372;47.956;7.830;2022-10-17T12:55:04;21.60;99.90
2729;DHT22;1372;47.956;7.830;2022-10-17T12:57:45;21.60;99.90
2729;DHT22;1372;47.956;7.830;2022-10-17T13:00:27;21.70;99.90
2729;DHT22;1372;47.956;7.830;2022-10-17T13:03:05;21.70;99.90
2729;DHT22;1372;47.956;7.830;2022-10-17T13:05:46;21.80;99.90
2729;DHT22;1372;47.956;7.830;2022-10-17T13:08:18;21.80;99.90
2729;DHT22;1372;47.956;7.830;2022-10-17T13:10:50;21.70;99.90
2729;DHT22;1372;47.956;7.830;2022-10-17T13:13:29;21.70;99.90
2729;DHT22;1372;47.956;7.830;2022-10-17T13:16:07;21.80;99.90
2729;DHT22;1372;47.956;7.830;2022-10-17T13:18:36;21.90;99.90
2729;DHT22;1372;47.956;7.830;2022-10-17T13:21:14;21.90;99.90
2729;DHT22;1372;47.956;7.830;2022-10-17T13:23:43;21.90;99.90
2729;DHT22;1372;47.956;7.830;2022-10-17T13:26:16;21.90;99.90
2729;DHT22;1372;47.956;7.830;2022-10-17T13:29:00;21.90;99.90
2729;DHT22;1372;47.956;7.830;2022-10-17T13:31:32;21.90;99.90
2729;DHT22;1372;47.956;7.830;2022-10-17T13:34:05;21.90;99.90
2729;DHT22;1372;47.956;7.830;2022-10-17T13:36:43;22.10;99.90
2729;DHT22;1372;47.956;7.830;2022-10-17T13:39:17;22.20;99.90
2729;DHT22;1372;47.956;7.830;2022-10-17T13:41:58;22.10;99.90
2729;DHT22;1372;47.956;7.830;2022-10-17T13:44:32;22.20;99.90
2729;DHT22;1372;47.956;7.830;2022-10-17T13:47:03;22.20;99.90
2729;DHT22;1372;47.956;7.830;2022-10-17T13:49:33;22.30;99.90
2729;DHT22;1372;47.956;7.830;2022-10-17T13:52:13;22.40;99.90
2729;DHT22;1372;47.956;7.830;2022-10-17T13:54:45;22.40;99.90
2729;DHT22;1372;47.956;7.830;2022-10-17T13:57:18;22.40;99.90
2729;DHT22;1372;47.956;7.830;2022-10-17T13:59:49;22.40;99.90
2729;DHT22;1372;47.956;7.830;2022-10-17T14:02:22;22.40;99.90
2729;DHT22;1372;47.956;7.830;2022-10-17T14:05:00;22.40;99.90
2729;DHT22;1372;47.956;7.830;2022-10-17T14:07:49;22.30;99.90
2729;DHT22;1372;47.956;7.830;2022-10-17T14:10:48;22.40;99.90
2729;DHT22;1372;47.956;7.830;2022-10-17T14:13:20;22.40;99.90
2729;DHT22;1372;47.956;7.830;2022-10-17T14:15:50;22.50;99.90
2729;DHT22;1372;47.956;7.830;2022-10-17T14:18:24;22.50;99.90
2729;DHT22;1372;47.956;7.830;2022-10-17T14:21:04;22.50;99.90
2729;DHT22;1372;47.956;7.830;2022-10-17T14:24:25;22.50;99.90
2729;DHT22;1372;47.956;7.830;2022-10-17T14:26:58;22.50;99.90
2729;DHT22;1372;47.956;7.830;2022-10-17T14:29:28;22.50;99.90
2729;DHT22;1372;47.956;7.830;2022-10-17T14:32:03;22.40;99.90
2729;DHT22;1372;47.956;7.830;2022-10-17T14:34:36;22.50;99.90
2729;DHT22;1372;47.956;7.830;2022-10-17T14:37:10;22.50;99.90
2729;DHT22;1372;47.956;7.830;2022-10-17T14:39:47;22.50;99.90
2729;DHT22;1372;47.956;7.830;2022-10-17T14:42:18;22.50;99.90
2729;DHT22;1372;47.956;7.830;2022-10-17T14:44:50;22.40;99.90
2729;DHT22;1372;47.956;7.830;2022-10-17T14:47:26;22.40;99.90
2729;DHT22;1372;47.956;7.830;2022-10-17T14:50:21;22.40;99.90
2729;DHT22;1372;47.956;7.830;2022-10-17T14:52:59;22.30;99.90
2729;DHT22;1372;47.956;7.830;2022-10-17T14:55:32;22.30;99.90
2729;DHT22;1372;47.956;7.830;2022-10-17T14:58:15;22.30;99.90
2729;DHT22;1372;47.956;7.830;2022-10-17T15:00:44;22.30;99.90
2729;DHT22;1372;47.956;7.830;2022-10-17T15:03:13;22.20;99.90
2729;DHT22;1372;47.956;7.830;2022-10-17T15:05:42;22.20;99.90
2729;DHT22;1372;47.956;7.830;2022-10-17T15:08:13;22.10;99.90
2729;DHT22;1372;47.956;7.830;2022-10-17T15:10:44;22.10;99.90
2729;DHT22;1372;47.956;7.830;2022-10-17T15:13:14;22.00;99.90
2729;DHT22;1372;47.956;7.830;2022-10-17T15:16:08;21.90;99.90
2729;DHT22;1372;47.956;7.830;2022-10-17T15:18:42;21.80;99.90
2729;DHT22;1372;47.956;7.830;2022-10-17T15:21:12;21.80;99.90
2729;DHT22;1372;47.956;7.830;2022-10-17T15:23:54;21.70;99.90
2729;DHT22;1372;47.956;7.830;2022-10-17T15:26:29;21.60;99.90
2729;DHT22;1372;47.956;7.830;2022-10-17T15:28:59;21.50;99.90
2729;DHT22;1372;47.956;7.830;2022-10-17T15:31:29;21.40;99.90
2729;DHT22;1372;47.956;7.830;2022-10-17T15:33:58;21.20;99.90
2729;DHT22;1372;47.956;7.830;2022-10-17T15:36:28;21.20;99.90
2729;DHT22;1372;47.956;7.830;2022-10-17T15:38:59;21.10;99.90
2729;DHT22;1372;47.956;7.830;2022-10-17T15:41:31;20.90;99.90
2729;DHT22;1372;47.956;7.830;2022-10-17T15:44:02;20.80;99.90
2729;DHT22;1372;47.956;7.830;2022-10-17T15:46:33;20.60;99.90
2729;DHT22;1372;47.956;7.830;2022-10-17T15:49:13;20.40;99.90
2729;DHT22;1372;47.956;7.830;2022-10-17T15:51:44;20.30;99.90
2729;DHT22;1372;47.956;7.830;2022-10-17T15:54:16;20.20;99.90
2729;DHT22;1372;47.956;7.830;2022-10-17T15:56:52;20.20;99.90
2729;DHT22;1372;47.956;7.830;2022-10-17T15:59:25;20.00;99.90
2729;DHT22;1372;47.956;7.830;2022-10-17T16:01:57;19.90;99.90
2729;DHT22;1372;47.956;7.830;2022-10-17T16:04:28;19.80;99.90
2729;DHT22;1372;47.956;7.830;2022-10-17T16:06:57;19.70;99.90
2729;DHT22;1372;47.956;7.830;2022-10-17T16:09:25;19.50;99.90
2729;DHT22;1372;47.956;7.830;2022-10-17T16:11:57;19.40;99.90
2729;DHT22;1372;47.956;7.830;2022-10-17T16:14:28;19.30;99.90
2729;DHT22;1372;47.956;7.830;2022-10-17T16:16:57;19.20;99.90
2729;DHT22;1372;47.956;7.830;2022-10-17T16:19:29;19.10;99.90
2729;DHT22;1372;47.956;7.830;2022-10-17T16:22:00;19.00;99.90
2729;DHT22;1372;47.956;7.830;2022-10-17T16:24:30;19.00;99.90
2729;DHT22;1372;47.956;7.830;2022-10-17T16:27:03;18.80;99.90
2729;DHT22;1372;47.956;7.830;2022-10-17T16:29:32;18.70;99.90
2729;DHT22;1372;47.956;7.830;2022-10-17T16:32:00;18.60;99.90
2729;DHT22;1372;47.956;7.830;2022-10-17T16:34:29;18.60;99.90
2729;DHT22;1372;47.956;7.830;2022-10-17T16:37:00;18.60;99.90
2729;DHT22;1372;47.956;7.830;2022-10-17T16:39:35;18.60;99.90
2729;DHT22;1372;47.956;7.830;2022-10-17T16:42:07;18.50;99.90
2729;DHT22;1372;47.956;7.830;2022-10-17T16:44:38;18.30;99.90
2729;DHT22;1372;47.956;7.830;2022-10-17T16:47:07;18.20;99.90
2729;DHT22;1372;47.956;7.830;2022-10-17T16:49:36;18.20;99.90
2729;DHT22;1372;47.956;7.830;2022-10-17T16:52:06;18.10;99.90
2729;DHT22;1372;47.956;7.830;2022-10-17T16:54:35;18.00;99.90
2729;DHT22;1372;47.956;7.830;2022-10-17T16:57:08;17.90;99.90